createdAt,value
2023-11-22T00:02:22.162Z,15.57
2023-11-22T00:04:49.191Z,12.73
2023-11-22T00:07:16.117Z,14.00
2023-11-22T00:09:43.627Z,14.20
2023-11-22T00:12:11.264Z,13.73
2023-11-22T00:14:38.699Z,15.27
2023-11-22T00:17:05.869Z,14.83
2023-11-22T00:19:34.021Z,12.57
2023-11-22T00:22:01.386Z,14.60
2023-11-22T00:24:28.381Z,14.00
2023-11-22T00:26:55.373Z,14.07
2023-11-22T00:29:22.452Z,12.93
2023-11-22T00:31:49.915Z,13.77
2023-11-22T00:34:19.805Z,11.30
2023-11-22T00:36:48.290Z,13.70
2023-11-22T00:39:15.421Z,15.40
2023-11-22T00:41:42.474Z,11.33
2023-11-22T00:44:09.716Z,12.53
2023-11-22T00:46:38.385Z,15.93
2023-11-22T00:49:05.826Z,10.43
2023-11-22T00:51:33.876Z,10.90
2023-11-22T00:54:01.253Z,9.50
2023-11-22T00:56:28.496Z,11.77
2023-11-22T00:58:56.638Z,11.63
2023-11-22T01:01:23.885Z,11.50
2023-11-22T01:03:51.046Z,12.20
2023-11-22T01:06:19.280Z,11.00
2023-11-22T01:08:46.308Z,11.43
2023-11-22T01:11:13.493Z,12.30
2023-11-22T01:13:44.236Z,11.50
2023-11-22T01:16:12.067Z,11.80
2023-11-22T01:18:40.347Z,10.77
2023-11-22T01:21:07.759Z,11.90
2023-11-22T01:23:34.790Z,11.87
2023-11-22T01:26:04.200Z,10.57
2023-11-22T01:28:35.371Z,13.60
2023-11-22T01:31:05.468Z,11.20
2023-11-22T01:33:33.949Z,9.80
2023-11-22T01:36:00.989Z,12.77
2023-11-22T01:38:28.348Z,11.70
2023-11-22T01:40:55.559Z,12.60
2023-11-22T01:43:25.398Z,9.07
2023-11-22T01:45:53.406Z,8.70
2023-11-22T01:48:20.974Z,9.77
2023-11-22T01:50:49.274Z,11.53
2023-11-22T01:53:19.992Z,11.47
2023-11-22T01:55:48.548Z,8.80
2023-11-22T01:58:16.036Z,11.70
2023-11-22T02:00:53.920Z,8.83
2023-11-22T02:03:22.374Z,8.27
2023-11-22T02:05:50.596Z,10.37
2023-11-22T02:08:20.166Z,10.60
2023-11-22T02:10:50.602Z,7.87
2023-11-22T02:13:17.635Z,8.57
2023-11-22T02:15:44.609Z,10.43
2023-11-22T02:18:13.857Z,9.30
2023-11-22T02:20:42.713Z,9.87
2023-11-22T02:23:11.041Z,9.27
2023-11-22T02:25:38.762Z,8.30
2023-11-22T02:28:05.972Z,8.87
2023-11-22T02:30:33.036Z,6.97
2023-11-22T02:33:00.702Z,9.67
2023-11-22T02:35:31.610Z,8.27
2023-11-22T02:37:59.037Z,8.57
2023-11-22T02:40:26.346Z,9.27
2023-11-22T02:42:54.786Z,9.00
2023-11-22T02:45:26.874Z,7.20
2023-11-22T02:47:54.145Z,6.47
2023-11-22T02:50:21.664Z,8.07
2023-11-22T02:52:48.657Z,7.43
2023-11-22T02:55:16.094Z,9.53
2023-11-22T02:57:43.435Z,7.53
2023-11-22T03:00:17.145Z,7.27
2023-11-22T03:02:44.545Z,9.27
2023-11-22T03:05:12.231Z,8.50
2023-11-22T03:07:39.448Z,7.20
2023-11-22T03:10:08.868Z,9.10
2023-11-22T03:12:36.525Z,7.97
2023-11-22T03:15:03.905Z,8.40
2023-11-22T03:17:31.273Z,9.07
2023-11-22T03:19:59.294Z,8.77
2023-11-22T03:22:34.760Z,7.60
2023-11-22T03:25:03.694Z,8.67
2023-11-22T03:27:31.140Z,7.17
2023-11-22T03:29:58.418Z,7.40
2023-11-22T03:32:25.450Z,8.90
2023-11-22T03:34:52.422Z,10.33
2023-11-22T03:37:19.422Z,7.63
2023-11-22T03:39:49.916Z,7.63
2023-11-22T03:42:17.761Z,6.77
2023-11-22T03:44:45.495Z,6.80
2023-11-22T03:47:15.750Z,8.63
2023-11-22T03:49:44.178Z,7.67
2023-11-22T03:52:15.498Z,7.97
2023-11-22T03:54:42.722Z,7.57
2023-11-22T03:57:09.684Z,8.07
2023-11-22T03:59:37.298Z,6.57
2023-11-22T04:02:05.136Z,8.10
2023-11-22T04:04:32.514Z,7.23
2023-11-22T04:07:00.072Z,6.93
2023-11-22T04:09:27.174Z,6.40
2023-11-22T04:11:54.315Z,9.83
2023-11-22T04:14:22.949Z,6.17
2023-11-22T04:16:50.716Z,8.50
2023-11-22T04:19:18.340Z,7.43
2023-11-22T04:21:45.717Z,7.57
2023-11-22T04:24:13.537Z,9.03
2023-11-22T04:26:40.643Z,7.47
2023-11-22T04:29:07.838Z,9.23
2023-11-22T04:31:34.733Z,9.17
2023-11-22T04:34:02.207Z,8.63
2023-11-22T04:36:29.346Z,8.33
2023-11-22T04:38:56.466Z,10.03
2023-11-22T04:41:24.098Z,6.27
2023-11-22T04:43:51.309Z,8.23
2023-11-22T04:46:18.468Z,7.93
2023-11-22T04:48:46.551Z,7.70
2023-11-22T04:51:13.671Z,8.97
2023-11-22T04:53:40.674Z,8.73
2023-11-22T04:56:08.233Z,8.00
2023-11-22T04:58:35.533Z,10.10
2023-11-22T05:01:03.347Z,8.33
2023-11-22T05:03:30.600Z,9.40
2023-11-22T05:05:57.600Z,5.77
2023-11-22T05:08:24.555Z,9.53
2023-11-22T05:10:53.785Z,8.50
2023-11-22T05:13:21.722Z,8.90
2023-11-22T05:15:49.120Z,9.10
2023-11-22T05:18:16.070Z,7.07
2023-11-22T05:20:43.160Z,8.40
2023-11-22T05:23:10.516Z,7.87
2023-11-22T05:25:37.675Z,8.97
2023-11-22T05:28:04.998Z,8.40
2023-11-22T05:30:32.198Z,8.53
2023-11-22T05:32:59.722Z,8.30
2023-11-22T05:35:26.711Z,8.67
2023-11-22T05:37:53.925Z,11.80
2023-11-22T05:40:20.859Z,9.43
2023-11-22T05:42:48.169Z,7.30
2023-11-22T05:45:15.310Z,7.87
2023-11-22T05:47:44.085Z,7.97
2023-11-22T05:50:11.433Z,9.20
2023-11-22T05:52:38.539Z,8.97
2023-11-22T05:55:06.600Z,9.70
2023-11-22T05:57:33.513Z,7.80
2023-11-22T06:00:00.916Z,8.37
2023-11-22T06:02:28.310Z,9.77
2023-11-22T06:04:56.070Z,10.80
2023-11-22T06:07:24.036Z,8.83
2023-11-22T06:09:51.103Z,10.17
2023-11-22T06:12:18.109Z,8.93
2023-11-22T06:14:45.147Z,11.03
2023-11-22T06:17:13.436Z,9.97
2023-11-22T06:19:40.466Z,8.70
2023-11-22T06:22:08.066Z,9.37
2023-11-22T06:24:37.400Z,10.93
2023-11-22T06:27:05.024Z,8.63
2023-11-22T06:29:32.641Z,10.20
2023-11-22T06:32:00.042Z,8.73
2023-11-22T06:34:27.836Z,9.30
2023-11-22T06:36:54.991Z,8.50
2023-11-22T06:39:23.908Z,7.83
2023-11-22T06:41:52.060Z,10.77
2023-11-22T06:44:19.749Z,10.20
2023-11-22T06:46:47.800Z,10.20
2023-11-22T06:49:15.925Z,9.70
2023-11-22T06:51:43.137Z,9.97
2023-11-22T06:54:11.795Z,10.93
2023-11-22T06:56:39.242Z,9.90
2023-11-22T06:59:06.276Z,10.20
2023-11-22T07:01:33.575Z,11.60
2023-11-22T07:04:02.469Z,12.10
2023-11-22T07:06:29.829Z,10.67
2023-11-22T07:08:57.023Z,9.37
2023-11-22T07:11:25.395Z,9.53
2023-11-22T07:13:53.646Z,8.70
2023-11-22T07:16:22.004Z,9.67
2023-11-22T07:18:49.212Z,11.00
2023-11-22T07:21:16.241Z,10.13
2023-11-22T07:23:43.313Z,11.60
2023-11-22T07:26:11.530Z,10.83
2023-11-22T07:28:38.957Z,10.37
2023-11-22T07:31:09.085Z,9.43
2023-11-22T07:33:36.699Z,8.93
2023-11-22T07:36:05.122Z,7.80
2023-11-22T07:38:34.419Z,10.03
2023-11-22T07:41:02.406Z,10.83
2023-11-22T07:43:29.478Z,10.17
2023-11-22T07:45:56.422Z,9.03
2023-11-22T07:48:24.209Z,10.37
2023-11-22T07:50:54.609Z,10.50
2023-11-22T07:53:21.825Z,11.40
2023-11-22T07:55:49.363Z,8.97
2023-11-22T07:58:17.324Z,8.30
2023-11-22T08:00:46.864Z,8.93
2023-11-22T08:03:16.995Z,10.57
2023-11-22T08:05:47.304Z,8.43
2023-11-22T08:08:14.796Z,7.87
2023-11-22T08:10:43.922Z,9.67
2023-11-22T08:13:11.049Z,10.60
2023-11-22T08:15:39.654Z,8.90
2023-11-22T08:18:07.096Z,8.30
2023-11-22T08:20:34.276Z,9.63
2023-11-22T08:23:01.808Z,6.17
2023-11-22T08:25:29.014Z,8.20
2023-11-22T08:27:56.876Z,7.10
2023-11-22T08:30:24.363Z,5.93
2023-11-22T08:32:57.220Z,8.10
2023-11-22T08:35:25.232Z,7.33
2023-11-22T08:37:53.223Z,6.97
2023-11-22T08:40:22.067Z,6.70
2023-11-22T08:42:49.627Z,8.20
2023-11-22T08:45:17.088Z,7.53
2023-11-22T08:47:44.774Z,8.47
2023-11-22T08:50:16.990Z,8.37
2023-11-22T08:52:46.949Z,7.13
2023-11-22T08:55:16.056Z,8.50
2023-11-22T08:57:43.417Z,6.67
2023-11-22T09:00:12.119Z,6.90
2023-11-22T09:02:40.773Z,8.27
2023-11-22T09:05:14.482Z,6.87
2023-11-22T09:07:42.156Z,7.03
2023-11-22T09:10:11.747Z,8.13
2023-11-22T09:12:43.218Z,7.67
2023-11-22T09:15:14.056Z,8.07
2023-11-22T09:17:45.030Z,8.40
2023-11-22T09:20:16.573Z,7.13
2023-11-22T09:22:54.496Z,8.33
2023-11-22T09:25:26.296Z,9.20
2023-11-22T09:27:57.165Z,7.87
2023-11-22T09:30:34.618Z,7.40
2023-11-22T09:33:06.878Z,8.53
2023-11-22T09:35:34.992Z,10.80
2023-11-22T09:38:03.987Z,14.63
2023-11-22T09:40:33.434Z,8.00
2023-11-22T09:43:03.268Z,8.60
2023-11-22T09:45:34.540Z,9.93
2023-11-22T09:48:03.565Z,7.00
2023-11-22T09:50:40.402Z,10.17
2023-11-22T09:53:14.212Z,9.23
2023-11-22T09:55:44.993Z,7.40
2023-11-22T09:58:14.218Z,6.00
2023-11-22T10:00:43.628Z,8.73
2023-11-22T10:03:15.970Z,8.13
2023-11-22T10:05:46.222Z,6.83
2023-11-22T10:08:14.032Z,7.00
2023-11-22T10:10:46.533Z,6.80
2023-11-22T10:13:14.313Z,6.80
2023-11-22T10:15:41.402Z,6.10
2023-11-22T10:18:08.676Z,8.17
2023-11-22T10:20:41.395Z,9.43
2023-11-22T10:23:13.607Z,6.73
2023-11-22T10:25:53.022Z,6.63
2023-11-22T10:28:29.483Z,8.57
2023-11-22T10:30:59.006Z,10.47
2023-11-22T10:33:28.958Z,7.57
2023-11-22T10:35:56.956Z,7.23
2023-11-22T10:38:24.033Z,5.53
2023-11-22T10:40:53.645Z,6.93
2023-11-22T10:43:24.787Z,5.53
2023-11-22T10:45:54.875Z,8.27
2023-11-22T10:48:22.564Z,9.57
2023-11-22T10:50:50.173Z,6.77
2023-11-22T10:53:21.848Z,6.90
2023-11-22T10:55:50.148Z,8.37
2023-11-22T10:58:18.939Z,6.83
2023-11-22T11:00:48.119Z,11.30
2023-11-22T11:03:23.803Z,6.60
2023-11-22T11:06:05.874Z,7.33
2023-11-22T11:08:35.530Z,7.00
2023-11-22T11:11:04.783Z,5.17
2023-11-22T11:13:32.464Z,6.60
2023-11-22T11:16:00.873Z,6.93
2023-11-22T11:18:31.826Z,6.40
2023-11-22T11:21:13.714Z,8.20
2023-11-22T11:23:42.807Z,7.03
2023-11-22T11:26:25.623Z,6.30
2023-11-22T11:28:55.115Z,5.97
2023-11-22T11:31:23.888Z,5.70
2023-11-22T11:33:54.798Z,6.93
2023-11-22T11:36:30.410Z,7.60
2023-11-22T11:38:59.195Z,6.33
2023-11-22T11:41:34.869Z,4.80
2023-11-22T11:44:08.958Z,6.47
2023-11-22T11:46:37.933Z,5.57
2023-11-22T11:49:11.636Z,6.57
2023-11-22T11:51:40.071Z,5.73
2023-11-22T11:54:07.897Z,6.10
2023-11-22T11:56:35.816Z,5.47
2023-11-22T11:59:03.607Z,6.47
2023-11-22T12:01:32.459Z,5.87
2023-11-22T12:04:02.298Z,5.07
2023-11-22T12:06:30.822Z,4.53
2023-11-22T12:08:59.692Z,9.73
2023-11-22T12:11:27.152Z,6.70
2023-11-22T12:13:56.223Z,6.10
2023-11-22T12:16:23.972Z,5.97
2023-11-22T12:18:52.821Z,8.43
2023-11-22T12:21:20.787Z,7.43
2023-11-22T12:23:49.772Z,5.70
2023-11-22T12:26:20.960Z,6.97
2023-11-22T12:29:00.646Z,8.33
2023-11-22T12:31:37.167Z,7.50
2023-11-22T12:34:08.698Z,5.87
2023-11-22T12:36:37.751Z,6.60
2023-11-22T12:39:10.256Z,7.67
2023-11-22T12:41:38.213Z,6.00
2023-11-22T12:44:09.617Z,8.30
2023-11-22T12:46:51.418Z,6.30
2023-11-22T12:49:20.346Z,6.80
2023-11-22T12:51:51.813Z,9.13
2023-11-22T12:54:22.791Z,8.57
2023-11-22T12:57:01.048Z,7.73
2023-11-22T12:59:29.399Z,5.30
2023-11-22T13:01:57.529Z,6.90
2023-11-22T13:04:25.030Z,6.97
2023-11-22T13:06:52.242Z,8.67
2023-11-22T13:09:19.265Z,14.67
2023-11-22T13:11:47.176Z,6.53
2023-11-22T13:14:18.083Z,10.33
2023-11-22T13:16:46.702Z,7.63
2023-11-22T13:19:14.717Z,8.97
2023-11-22T13:21:46.115Z,7.57
2023-11-22T13:24:15.329Z,10.47
2023-11-22T13:26:46.031Z,8.10
2023-11-22T13:29:13.304Z,6.67
2023-11-22T13:31:40.907Z,9.57
2023-11-22T13:34:08.180Z,6.73
2023-11-22T13:36:36.347Z,6.70
2023-11-22T13:39:04.826Z,9.77
2023-11-22T13:41:33.986Z,10.53
2023-11-22T13:44:02.148Z,9.77
2023-11-22T13:46:30.492Z,9.60
2023-11-22T13:48:59.264Z,9.33
2023-11-22T13:51:26.469Z,7.03
2023-11-22T13:53:54.891Z,9.23
2023-11-22T13:56:23.198Z,10.03
2023-11-22T13:58:50.576Z,8.60
2023-11-22T14:01:23.291Z,12.73
2023-11-22T14:03:51.187Z,7.90
2023-11-22T14:06:19.471Z,6.57
2023-11-22T14:08:46.744Z,7.87
2023-11-22T14:11:14.287Z,9.00
2023-11-22T14:13:42.229Z,9.33
2023-11-22T14:16:14.847Z,8.60
2023-11-22T14:18:42.389Z,8.33
2023-11-22T14:21:10.055Z,9.23
2023-11-22T14:23:37.587Z,14.10
2023-11-22T14:26:05.276Z,7.80
2023-11-22T14:28:34.161Z,7.17
2023-11-22T14:31:01.924Z,7.30
2023-11-22T14:33:33.192Z,10.27
2023-11-22T14:36:01.292Z,8.97
2023-11-22T14:38:28.691Z,11.57
2023-11-22T14:40:57.756Z,12.27
2023-11-22T14:43:25.018Z,13.63
2023-11-22T14:45:52.744Z,13.33
2023-11-22T14:48:20.224Z,11.50
2023-11-22T14:50:47.783Z,12.33
2023-11-22T14:53:14.808Z,11.00
2023-11-22T14:55:43.010Z,14.63
2023-11-22T14:58:12.677Z,13.87
2023-11-22T15:00:39.970Z,15.70
2023-11-22T15:03:09.001Z,15.27
2023-11-22T15:05:36.010Z,13.93
2023-11-22T15:08:03.165Z,15.43
2023-11-22T15:10:30.645Z,14.53
2023-11-22T15:12:58.980Z,13.00
2023-11-22T15:15:27.078Z,13.30
2023-11-22T15:17:55.556Z,16.63
2023-11-22T15:20:23.496Z,16.93
2023-11-22T15:22:51.918Z,19.53
2023-11-22T15:25:20.010Z,15.57
2023-11-22T15:27:47.121Z,15.83
2023-11-22T15:30:14.226Z,16.60
2023-11-22T15:32:41.966Z,20.20
2023-11-22T15:35:10.826Z,14.83
2023-11-22T15:37:38.510Z,16.73
2023-11-22T15:40:08.886Z,16.20
2023-11-22T15:42:36.241Z,15.60
2023-11-22T15:45:04.094Z,17.43
2023-11-22T15:47:37.208Z,17.27
2023-11-22T15:50:08.211Z,18.70
2023-11-22T15:52:35.686Z,15.43
2023-11-22T15:55:02.907Z,18.57
2023-11-22T15:57:30.481Z,18.57
2023-11-22T15:59:58.734Z,19.73
2023-11-22T16:02:26.575Z,21.53
2023-11-22T16:04:53.819Z,21.10
2023-11-22T16:07:22.317Z,18.70
2023-11-22T16:09:50.657Z,22.50
2023-11-22T16:12:20.835Z,17.50
2023-11-22T16:14:49.121Z,18.77
2023-11-22T16:17:17.344Z,18.60
2023-11-22T16:19:46.631Z,20.40
2023-11-22T16:22:13.820Z,21.57
2023-11-22T16:24:42.586Z,21.47
2023-11-22T16:27:09.647Z,21.13
2023-11-22T16:29:37.753Z,20.63
2023-11-22T16:32:07.953Z,21.77
2023-11-22T16:34:35.765Z,20.17
2023-11-22T16:37:04.662Z,22.13
2023-11-22T16:39:32.440Z,24.03
2023-11-22T16:41:59.948Z,23.40
2023-11-22T16:44:27.188Z,22.93
2023-11-22T16:46:54.482Z,22.63
2023-11-22T16:49:22.123Z,22.20
2023-11-22T16:51:49.265Z,21.33
2023-11-22T16:54:16.398Z,20.90
2023-11-22T16:56:43.519Z,24.67
2023-11-22T16:59:10.985Z,23.17
2023-11-22T17:01:38.217Z,22.53
2023-11-22T17:04:05.487Z,24.63
2023-11-22T17:06:32.832Z,26.20
2023-11-22T17:09:00.028Z,23.37
2023-11-22T17:11:27.311Z,21.97
2023-11-22T17:13:54.490Z,24.10
2023-11-22T17:16:21.994Z,21.37
2023-11-22T17:18:49.388Z,22.67
2023-11-22T17:21:18.256Z,26.90
2023-11-22T17:23:46.131Z,24.27
2023-11-22T17:26:13.655Z,23.20
2023-11-22T17:28:41.056Z,21.60
2023-11-22T17:31:08.199Z,21.87
2023-11-22T17:33:35.828Z,24.70
2023-11-22T17:36:03.242Z,21.70
2023-11-22T17:38:30.366Z,21.87
2023-11-22T17:40:57.366Z,20.80
2023-11-22T17:43:24.666Z,24.97
2023-11-22T17:45:51.908Z,22.17
2023-11-22T17:48:19.247Z,24.70
2023-11-22T17:50:46.629Z,26.07
2023-11-22T17:53:16.690Z,26.20
2023-11-22T17:55:44.271Z,22.43
2023-11-22T17:58:11.564Z,24.57
2023-11-22T18:00:38.639Z,24.13
2023-11-22T18:03:05.932Z,24.17
2023-11-22T18:05:33.108Z,25.63
2023-11-22T18:08:00.469Z,25.43
2023-11-22T18:10:35.204Z,28.17
2023-11-22T18:13:09.226Z,28.57
2023-11-22T18:15:39.015Z,26.77
2023-11-22T18:18:06.597Z,26.13
2023-11-22T18:20:36.285Z,31.83
2023-11-22T18:23:03.577Z,28.97
2023-11-22T18:25:30.610Z,32.43
2023-11-22T18:27:58.423Z,25.60
2023-11-22T18:30:25.378Z,28.17
2023-11-22T18:32:52.722Z,32.37
2023-11-22T18:35:21.226Z,32.77
2023-11-22T18:37:49.347Z,29.47
2023-11-22T18:40:17.577Z,30.57
2023-11-22T18:42:45.815Z,30.23
2023-11-22T18:45:13.943Z,37.40
2023-11-22T18:47:42.326Z,32.00
2023-11-22T18:50:10.136Z,32.30
2023-11-22T18:52:37.457Z,34.00
2023-11-22T18:55:04.629Z,31.30
2023-11-22T18:57:31.868Z,34.60
2023-11-22T18:59:59.193Z,33.80
2023-11-22T19:02:26.292Z,35.80
2023-11-22T19:04:53.361Z,33.27
2023-11-22T19:07:20.524Z,35.00
2023-11-22T19:09:48.902Z,35.10
2023-11-22T19:12:16.527Z,35.47
2023-11-22T19:14:43.773Z,32.20
2023-11-22T19:17:12.397Z,36.20
2023-11-22T19:19:42.974Z,33.07
2023-11-22T19:22:10.724Z,31.37
2023-11-22T19:24:39.092Z,31.40
2023-11-22T19:27:07.168Z,36.20
2023-11-22T19:29:34.532Z,34.43
2023-11-22T19:32:01.935Z,33.87
2023-11-22T19:34:29.222Z,32.60
2023-11-22T19:36:56.687Z,33.73
2023-11-22T19:39:25.847Z,34.33
2023-11-22T19:41:54.040Z,32.80
2023-11-22T19:44:21.508Z,30.77
2023-11-22T19:46:48.689Z,30.47
2023-11-22T19:49:16.465Z,30.30
2023-11-22T19:51:43.715Z,32.03
2023-11-22T19:54:12.193Z,29.17
2023-11-22T19:56:40.424Z,30.20
2023-11-22T19:59:07.677Z,30.33
2023-11-22T20:01:34.957Z,33.37
2023-11-22T20:04:02.288Z,29.93
2023-11-22T20:06:30.110Z,32.63
2023-11-22T20:08:57.202Z,34.73
2023-11-22T20:11:24.680Z,32.87
2023-11-22T20:13:55.856Z,34.20
2023-11-22T20:16:23.018Z,34.63
2023-11-22T20:18:51.468Z,32.30
2023-11-22T20:21:19.022Z,32.27
2023-11-22T20:23:46.326Z,35.27
2023-11-22T20:26:13.779Z,34.07
2023-11-22T20:28:41.503Z,36.83
2023-11-22T20:31:12.792Z,38.70
2023-11-22T20:33:40.225Z,33.30
2023-11-22T20:36:07.838Z,35.10
2023-11-22T20:38:35.632Z,35.97
2023-11-22T20:41:03.930Z,36.10
2023-11-22T20:43:32.139Z,36.77
2023-11-22T20:45:59.874Z,35.53
2023-11-22T20:48:27.178Z,33.53
2023-11-22T20:50:54.291Z,40.83
2023-11-22T20:53:21.488Z,32.73
2023-11-22T20:55:48.496Z,35.83
2023-11-22T20:58:15.875Z,33.60
2023-11-22T21:00:42.977Z,30.80
2023-11-22T21:03:10.160Z,34.03
2023-11-22T21:05:37.417Z,32.43
2023-11-22T21:08:10.960Z,32.67
2023-11-22T21:10:45.104Z,32.17
2023-11-22T21:13:12.312Z,35.70
2023-11-22T21:15:40.424Z,31.67
2023-11-22T21:18:08.496Z,33.77
2023-11-22T21:20:35.708Z,32.77
2023-11-22T21:23:02.818Z,35.20
2023-11-22T21:25:29.749Z,32.67
2023-11-22T21:27:56.716Z,32.03
2023-11-22T21:30:23.729Z,37.67
2023-11-22T21:32:51.243Z,40.90
2023-11-22T21:35:18.448Z,30.97
2023-11-22T21:37:45.424Z,33.37
2023-11-22T21:40:14.182Z,33.73
2023-11-22T21:42:41.548Z,33.07
2023-11-22T21:45:12.503Z,30.73
2023-11-22T21:47:40.113Z,33.53
2023-11-22T21:50:08.473Z,40.17
2023-11-22T21:52:36.051Z,35.17
2023-11-22T21:55:03.292Z,32.87
2023-11-22T21:57:30.381Z,33.20
2023-11-22T21:59:57.557Z,37.17
2023-11-22T22:02:24.603Z,32.83
2023-11-22T22:04:51.961Z,37.13
2023-11-22T22:07:19.370Z,35.70
2023-11-22T22:09:46.440Z,37.33
2023-11-22T22:12:13.910Z,38.10
2023-11-22T22:14:43.087Z,35.77
2023-11-22T22:17:10.179Z,39.17
2023-11-22T22:19:37.345Z,41.90
2023-11-22T22:22:04.755Z,39.67
2023-11-22T22:24:32.067Z,37.30
2023-11-22T22:26:58.961Z,39.00
2023-11-22T22:29:25.953Z,41.87
2023-11-22T22:31:52.969Z,36.00
2023-11-22T22:34:20.229Z,41.77
2023-11-22T22:36:47.642Z,36.60
2023-11-22T22:39:15.019Z,35.50
2023-11-22T22:41:42.126Z,32.87
2023-11-22T22:44:09.146Z,33.07
2023-11-22T22:46:40.988Z,34.13
2023-11-22T22:49:08.369Z,33.50
2023-11-22T22:51:36.086Z,27.70
2023-11-22T22:54:04.262Z,30.67
2023-11-22T22:56:31.886Z,32.03
2023-11-22T22:58:58.814Z,32.70
2023-11-22T23:01:25.825Z,29.93
2023-11-22T23:03:53.072Z,27.87
2023-11-22T23:06:27.513Z,28.80
2023-11-22T23:08:54.984Z,29.70
2023-11-22T23:11:22.470Z,27.73
2023-11-22T23:13:50.973Z,30.70
2023-11-22T23:16:21.271Z,28.27
2023-11-22T23:18:55.731Z,28.23
2023-11-22T23:21:27.611Z,35.77
2023-11-22T23:23:55.119Z,35.07
2023-11-22T23:26:23.406Z,31.00
2023-11-22T23:28:50.676Z,29.50
2023-11-22T23:31:18.278Z,32.03
2023-11-22T23:33:49.957Z,34.17
2023-11-22T23:36:17.394Z,36.40
2023-11-22T23:38:45.578Z,33.97
2023-11-22T23:41:13.423Z,35.67
2023-11-22T23:43:40.412Z,40.37
2023-11-22T23:46:09.031Z,41.97
2023-11-22T23:48:36.281Z,38.57
2023-11-22T23:51:03.872Z,42.07
